Time;durP1;ratioP1;P1;durP2;ratioP2;P2;SDS_P1;SDS_P2;PMS_P1;PMS_P2;Temp;Humidity;BMP_temperature;BMP_pressure;BME280_temperature;BME280_humidity;BME280_pressure;Samples;Min_cycle;Max_cycle;Signal;HPM_P1;HPM_P2
2023/10/28 00:01:57;;;;;;;2.08;1.70;;;;;;;11.55;66.99;98379.28;7683589;32;38113;-78
2023/10/28 00:06:13;;;;;;;2.65;1.45;;;;;;;11.46;67.60;98373.78;7684218;32;40989;-79
2023/10/28 00:10:33;;;;;;;1.42;1.33;;;;;;;11.95;65.73;98384.84;7684146;32;37900;-79
2023/10/28 00:14:50;;;;;;;6.68;1.95;;;;;;;12.09;65.11;98382.00;7684097;32;37897;-79
2023/10/28 00:19:07;;;;;;;2.62;1.77;;;;;;;11.93;65.50;98392.53;7683954;32;40332;-78
2023/10/28 00:23:25;;;;;;;4.70;1.87;;;;;;;11.72;66.18;98385.97;7683898;32;39839;-78
2023/10/28 00:27:43;;;;;;;2.10;1.62;;;;;;;11.83;65.81;98399.06;7683775;32;38064;-78
2023/10/28 00:31:59;;;;;;;3.37;1.60;;;;;;;11.83;65.89;98399.06;7683720;32;37768;-79
2023/10/28 00:36:16;;;;;;;3.37;1.60;;;;;;;11.70;66.01;98404.59;7683751;32;39467;-79
2023/10/28 00:40:32;;;;;;;2.72;1.65;;;;;;;11.93;65.53;98399.91;7683136;32;40722;-78
2023/10/28 00:44:48;;;;;;;6.32;1.80;;;;;;;12.00;65.10;98398.34;7683247;32;38033;-78
2023/10/28 00:49:06;;;;;;;3.55;1.60;;;;;;;12.03;65.06;98411.34;7677848;32;177008;-78
2023/10/28 00:53:24;;;;;;;2.85;1.85;;;;;;;11.89;65.29;98413.38;7683169;32;39796;-78
2023/10/28 00:57:42;;;;;;;3.12;1.98;;;;;;;11.83;65.90;98409.97;7683209;32;39577;-79
2023/10/28 01:01:58;;;;;;;3.70;1.95;;;;;;;11.63;66.42;98408.56;7681442;32;37597;-78
2023/10/28 01:06:15;;;;;;;8.02;1.95;;;;;;;11.77;65.96;98410.41;7682459;32;37261;-79
2023/10/28 01:10:37;;;;;;;5.00;1.75;;;;;;;11.72;65.91;98418.75;7682962;32;39007;-79
2023/10/28 01:14:56;;;;;;;3.35;1.42;;;;;;;11.61;66.51;98424.47;7686307;32;39967;-78
2023/10/28 01:19:12;;;;;;;3.05;1.90;;;;;;;11.79;65.45;98432.75;7686364;32;38737;-79
2023/10/28 01:23:29;;;;;;;2.42;1.75;;;;;;;11.46;66.52;98438.47;7686267;32;37803;-78
2023/10/28 01:27:45;;;;;;;2.00;1.75;;;;;;;11.54;65.72;98443.22;7686243;32;40243;-78
2023/10/28 01:32:05;;;;;;;2.05;1.60;;;;;;;11.91;64.50;98438.47;7685926;32;41299;-78
2023/10/28 01:36:21;;;;;;;4.80;1.70;;;;;;;12.15;63.98;98438.09;7686011;32;37857;-78
2023/10/28 01:40:38;;;;;;;3.72;1.83;;;;;;;12.20;63.70;98437.16;7686049;32;37168;-78
2023/10/28 01:44:54;;;;;;;2.33;1.70;;;;;;;12.25;63.47;98434.28;7685943;32;39273;-78
2023/10/28 01:49:11;;;;;;;2.05;1.65;;;;;;;12.40;62.98;98439.31;7685968;32;40216;-79
2023/10/28 01:53:27;;;;;;;2.62;1.75;;;;;;;12.01;64.14;98440.91;7685370;32;37874;-78
2023/10/28 01:57:44;;;;;;;4.10;1.55;;;;;;;12.00;64.16;98452.97;7685801;32;37145;-78
2023/10/28 02:02:02;;;;;;;3.42;1.52;;;;;;;12.22;63.72;98448.56;7685845;32;39924;-78
2023/10/28 02:06:19;;;;;;;2.65;1.77;;;;;;;12.08;63.94;98454.13;7685625;32;39978;-78
2023/10/28 02:10:35;;;;;;;3.47;1.60;;;;;;;12.42;63.34;98446.37;7685685;32;38032;-78
2023/10/28 02:14:52;;;;;;;1.60;1.50;;;;;;;12.87;61.76;98452.44;7685756;32;37642;-79
2023/10/28 02:19:08;;;;;;;5.70;1.67;;;;;;;12.74;62.18;98456.13;7685790;32;39194;-78
2023/10/28 02:23:26;;;;;;;1.92;1.42;;;;;;;12.80;61.72;98462.22;7685205;32;40079;-78
2023/10/28 02:27:42;;;;;;;1.48;1.33;;;;;;;12.63;62.07;98474.75;7685421;32;37889;-78
2023/10/28 02:31:59;;;;;;;2.10;1.73;;;;;;;12.58;62.33;98472.16;7685269;32;38062;-79
2023/10/28 02:36:15;;;;;;;1.85;1.50;;;;;;;12.77;61.73;98472.69;7685380;32;39302;-78
2023/10/28 02:40:31;;;;;;;2.20;1.70;;;;;;;12.90;60.95;98478.34;7685313;32;40984;-79
2023/10/28 02:44:48;;;;;;;2.33;1.65;;;;;;;12.82;61.68;98479.16;7685245;32;38136;-79
2023/10/28 02:49:04;;;;;;;2.12;1.80;;;;;;;12.58;62.45;98478.44;7685229;32;37858;-79
2023/10/28 02:53:21;;;;;;;2.28;1.70;;;;;;;12.89;61.66;98480.28;7685432;32;40100;-79
2023/10/28 02:57:38;;;;;;;2.90;1.70;;;;;;;12.88;61.62;98475.13;7685210;32;40035;-78
2023/10/28 03:01:55;;;;;;;4.37;1.65;;;;;;;12.93;61.80;98467.56;7684685;32;37952;-79
2023/10/28 03:06:12;;;;;;;3.62;1.75;;;;;;;12.81;62.22;98469.31;7685039;32;37851;-79
2023/10/28 03:10:28;;;;;;;4.60;1.90;;;;;;;13.00;61.71;98469.03;7684997;32;39402;-78
2023/10/28 03:14:45;;;;;;;5.80;1.90;;;;;;;12.96;61.92;98463.41;7684876;32;40209;-79
2023/10/28 03:19:01;;;;;;;3.03;1.60;;;;;;;12.95;62.01;98470.81;7684663;32;37815;-79
2023/10/28 03:23:17;;;;;;;3.45;1.90;;;;;;;12.87;62.49;98476.28;7684921;32;37109;-78
2023/10/28 03:27:34;;;;;;;4.85;1.70;;;;;;;12.88;62.30;98484.16;7684899;32;39041;-79
2023/10/28 03:31:50;;;;;;;4.85;1.62;;;;;;;13.01;61.77;98484.34;7683267;32;39999;-79
2023/10/28 03:36:10;;;;;;;3.25;1.58;;;;;;;13.02;61.73;98492.22;7683853;32;38622;-78
2023/10/28 03:40:27;;;;;;;4.43;1.45;;;;;;;13.08;61.47;98501.88;7684751;32;37209;-78
2023/10/28 03:44:43;;;;;;;6.70;2.20;;;;;;;13.12;61.34;98504.78;7684669;32;39308;-78
2023/10/28 03:48:59;;;;;;;2.33;1.70;;;;;;;13.13;61.30;98509.94;7684565;32;40351;-78
2023/10/28 03:53:16;;;;;;;3.67;1.50;;;;;;;13.01;61.75;98507.03;7684354;32;37577;-78
2023/10/28 03:57:33;;;;;;;4.85;1.37;;;;;;;13.19;61.34;98507.03;7684496;32;37214;-78
2023/10/28 04:01:49;;;;;;;2.15;1.60;;;;;;;13.26;61.02;98505.44;7684313;32;39309;-77
2023/10/28 04:06:06;;;;;;;1.98;1.50;;;;;;;13.21;60.88;98511.09;7684125;32;40117;-78
2023/10/28 04:10:23;;;;;;;3.08;1.83;;;;;;;13.10;61.06;98513.31;7684167;32;38013;-78
2023/10/28 04:14:40;;;;;;;2.50;1.83;;;;;;;13.21;60.75;98518.47;7683878;32;37274;-78
2023/10/28 04:18:56;;;;;;;1.90;1.48;;;;;;;12.96;61.14;98520.84;7683681;32;39919;-78
2023/10/28 04:23:12;;;;;;;6.20;1.83;;;;;;;12.60;62.35;98530.06;7683965;32;40535;-78
2023/10/28 04:27:29;;;;;;;2.90;1.80;;;;;;;12.55;62.17;98519.28;7683375;32;37939;-78
2023/10/28 04:31:46;;;;;;;2.60;1.67;;;;;;;12.65;61.81;98516.25;7680879;32;36696;-78
2023/10/28 04:36:02;;;;;;;2.50;1.65;;;;;;;12.49;62.34;98523.28;7683602;32;39251;-78
2023/10/28 04:40:19;;;;;;;4.00;1.60;;;;;;;12.46;62.65;98523.91;7683597;32;39037;-77
2023/10/28 04:44:35;;;;;;;1.90;1.70;;;;;;;12.49;62.55;98526.00;7682185;32;38700;-77
2023/10/28 04:48:52;;;;;;;8.18;1.80;;;;;;;12.39;62.64;98532.56;7686564;32;36959;-77
2023/10/28 04:53:08;;;;;;;3.58;1.62;;;;;;;12.27;62.96;98529.59;7686649;32;39893;-78
2023/10/28 04:57:25;;;;;;;1.70;1.60;;;;;;;12.27;62.85;98544.06;7686473;32;41030;-78
2023/10/28 05:01:42;;;;;;;1.75;1.50;;;;;;;12.40;62.37;98540.44;7685692;32;36414;-77
2023/10/28 05:05:58;;;;;;;3.15;1.60;;;;;;;12.00;63.50;98550.47;7686378;32;36737;-77
2023/10/28 05:10:14;;;;;;;2.53;1.77;;;;;;;11.92;63.67;98560.25;7686130;32;39462;-78
2023/10/28 05:14:31;;;;;;;3.42;1.58;;;;;;;12.11;62.94;98553.78;7685876;32;40112;-77
2023/10/28 05:18:47;;;;;;;2.92;1.62;;;;;;;12.05;62.94;98564.00;7683005;32;37972;-78
2023/10/28 05:23:04;;;;;;;3.00;1.70;;;;;;;11.86;63.60;98564.19;7686300;32;37003;-78
2023/10/28 05:27:21;;;;;;;1.35;1.25;;;;;;;12.10;62.70;98580.28;7686197;32;39394;-78
2023/10/28 05:31:37;;;;;;;1.98;1.42;;;;;;;11.94;63.20;98584.53;7686251;32;39989;-77
2023/10/28 05:35:53;;;;;;;2.55;1.70;;;;;;;11.93;63.45;98593.81;7686034;32;38734;-77
2023/10/28 05:40:10;;;;;;;2.65;1.50;;;;;;;11.70;64.44;98606.63;7686222;32;37780;-78
2023/10/28 05:44:27;;;;;;;2.70;1.70;;;;;;;11.75;64.52;98610.03;7686101;32;40133;-78
2023/10/28 05:48:43;;;;;;;2.75;1.60;;;;;;;11.90;64.22;98614.34;7685714;32;40794;-79
2023/10/28 05:52:59;;;;;;;3.40;1.80;;;;;;;11.70;65.00;98623.81;7685902;32;37908;-77
2023/10/28 05:57:16;;;;;;;1.83;1.60;;;;;;;11.93;64.64;98621.94;7685426;32;37186;-77
2023/10/28 06:01:32;;;;;;;2.60;1.62;;;;;;;11.80;65.13;98629.03;7685992;32;39092;-78
2023/10/28 06:05:48;;;;;;;3.80;2.35;;;;;;;12.03;64.75;98632.62;7685188;32;40875;-77
2023/10/28 06:10:07;;;;;;;2.35;1.87;;;;;;;11.93;65.09;98643.78;7684309;32;38625;-77
2023/10/28 06:14:24;;;;;;;3.58;1.80;;;;;;;11.99;64.84;98645.28;7685674;32;37249;-78
2023/10/28 06:18:40;;;;;;;4.50;2.40;;;;;;;12.17;64.47;98648.16;7685626;32;39031;-79
2023/10/28 06:22:57;;;;;;;2.80;2.12;;;;;;;12.01;67.70;98662.16;7685538;32;39967;-82
2023/10/28 06:27:13;;;;;;;2.50;2.00;;;;;;;12.30;65.98;98669.16;7685482;32;38661;-80
2023/10/28 06:31:29;;;;;;;2.37;2.00;;;;;;;12.59;66.47;98665.16;7685533;32;37250;-83
2023/10/28 06:35:46;;;;;;;3.53;1.52;;;;;;;12.72;65.85;98666.19;7685441;32;39346;-82
2023/10/28 06:40:03;;;;;;;2.97;1.75;;;;;;;11.95;66.30;98688.00;7685430;32;40845;-83
2023/10/28 06:44:20;;;;;;;3.05;1.85;;;;;;;12.62;64.33;98693.78;7685163;32;37936;-83
2023/10/28 06:48:36;;;;;;;1.73;1.50;;;;;;;12.90;63.19;98708.94;7685321;32;37871;-83
2023/10/28 06:52:53;;;;;;;3.20;1.77;;;;;;;13.22;62.61;98717.94;7685335;32;39382;-84
2023/10/28 06:57:09;;;;;;;2.92;1.85;;;;;;;13.39;62.29;98719.97;7685198;32;39964;-83
2023/10/28 07:01:26;;;;;;;2.22;1.70;;;;;;;13.73;62.04;98712.16;7685020;32;37918;-84
2023/10/28 07:05:45;;;;;;;3.65;2.10;;;;;;;13.84;62.04;98725.25;7685029;32;37115;-84
2023/10/28 07:10:03;;;;;;;3.62;1.70;;;;;;;13.58;63.21;98733.41;7684133;32;39069;-83
2023/10/28 07:14:23;;;;;;;3.92;1.67;;;;;;;14.02;62.01;98737.06;7671355;32;40863;-83
2023/10/28 07:18:42;;;;;;;;;;;;;;;14.55;60.94;98737.06;7685283;32;37891;-83
2023/10/28 07:23:02;;;;;;;4.12;1.77;;;;;;;14.88;60.04;98737.34;7685052;32;37517;-84
2023/10/28 07:27:21;;;;;;;3.87;2.42;;;;;;;15.14;59.30;98758.44;7671515;32;39300;-83
2023/10/28 07:31:41;;;;;;;2.20;1.57;;;;;;;15.15;59.02;98760.88;7684732;32;40905;-83
2023/10/28 07:36:02;;;;;;;2.15;1.60;;;;;;;15.40;58.15;98753.69;7684463;32;39182;-84
2023/10/28 07:40:19;;;;;;;2.25;1.80;;;;;;;15.48;58.34;98756.72;7684804;32;36800;-84
2023/10/28 07:44:37;;;;;;;1.20;1.10;;;;;;;15.89;57.99;98769.00;7679948;32;39844;-85
2023/10/28 07:48:53;;;;;;;3.22;1.50;;;;;;;16.10;55.64;98777.28;7684639;32;40103;-83
2023/10/28 07:53:11;;;;;;;2.50;1.90;;;;;;;16.21;56.71;98778.53;7684473;32;37889;-84
2023/10/28 07:57:28;;;;;;;6.57;2.12;;;;;;;16.60;56.06;98783.88;7671012;32;38718;-80
2023/10/28 08:01:45;;;;;;;3.55;1.90;;;;;;;16.68;57.45;98783.00;7684425;32;39015;-85
2023/10/28 08:06:08;;;;;;;2.97;1.60;;;;;;;16.71;54.36;98785.06;7683992;32;40007;-80
2023/10/28 08:10:38;;;;;;;1.98;1.40;;;;;;;16.34;57.17;98793.12;7684115;32;37935;-85
2023/10/28 08:14:54;;;;;;;2.67;1.60;;;;;;;16.23;56.97;98791.91;7684509;32;37294;-82
2023/10/28 08:19:12;;;;;;;6.80;1.67;;;;;;;15.90;56.11;98803.59;7683974;32;39468;-82
2023/10/28 08:23:28;;;;;;;2.72;1.60;;;;;;;16.07;57.17;98808.97;7683564;32;40867;-84
2023/10/28 08:27:47;;;;;;;3.92;1.52;;;;;;;16.41;55.46;98809.09;7669831;32;37765;-84
2023/10/28 08:32:04;;;;;;;5.10;1.50;;;;;;;16.68;54.98;98814.06;7669552;32;37537;-84
2023/10/28 08:36:21;;;;;;;2.45;1.10;;;;;;;17.26;52.71;98816.97;7666165;32;39359;-84
2023/10/28 08:40:43;;;;;;;1.48;1.05;;;;;;;17.62;49.97;98820.94;7657245;32;40790;-84
2023/10/28 08:45:01;;;;;;;2.50;1.02;;;;;;;17.45;47.97;98829.41;7657045;32;38707;-86
2023/10/28 08:49:18;;;;;;;1.55;1.10;;;;;;;17.41;49.50;98828.50;7655851;32;36422;-84
2023/10/28 08:53:35;;;;;;;7.65;2.00;;;;;;;17.91;49.85;98838.47;7656829;32;39209;-84
2023/10/28 08:57:52;;;;;;;4.37;2.20;;;;;;;17.99;50.12;98845.81;7656511;32;40055;-83
2023/10/28 09:02:10;;;;;;;2.10;1.30;;;;;;;18.12;50.64;98851.34;7656556;32;38593;-85
2023/10/28 09:06:28;;;;;;;2.05;1.40;;;;;;;18.15;48.18;98858.94;7656293;32;37800;-83
2023/10/28 09:10:45;;;;;;;3.22;1.25;;;;;;;17.83;51.29;98862.22;7656448;32;39469;-84
2023/10/28 09:15:03;;;;;;;1.77;1.10;;;;;;;18.13;50.21;98866.75;7656257;32;39934;-84
2023/10/28 09:19:21;;;;;;;1.52;0.95;;;;;;;18.49;48.47;98876.12;7656195;32;37812;-84
2023/10/28 09:23:38;;;;;;;3.62;1.50;;;;;;;18.25;48.90;98875.03;7656163;32;37812;-84
2023/10/28 09:27:55;;;;;;;3.92;1.60;;;;;;;18.26;48.73;98873.84;7656179;32;39385;-84
2023/10/28 09:32:11;;;;;;;3.53;1.90;;;;;;;18.28;49.96;98877.09;7656591;32;40940;-84
2023/10/28 09:36:29;;;;;;;6.07;1.98;;;;;;;18.30;50.28;98883.06;7659467;32;37939;-84
2023/10/28 09:40:47;;;;;;;4.50;2.00;;;;;;;18.29;52.83;98883.41;7659680;32;37363;-86
2023/10/28 09:45:09;;;;;;;4.22;2.08;;;;;;;18.30;52.50;98896.84;7659573;32;39261;-83
2023/10/28 09:49:27;;;;;;;5.10;2.33;;;;;;;17.55;53.06;98895.09;7659612;32;40001;-84
2023/10/28 09:53:50;;;;;;;4.90;2.00;;;;;;;17.67;52.52;98899.06;7659557;32;37603;-86
2023/10/28 09:58:12;;;;;;;2.28;1.75;;;;;;;17.03;53.30;98893.63;7659520;32;37576;-85
2023/10/28 10:02:32;;;;;;;11.33;1.90;;;;;;;17.50;53.57;98884.28;7659508;32;39469;-86
2023/10/28 10:06:49;;;;;;;2.22;1.37;;;;;;;17.33;54.08;98890.78;7659103;32;39949;-85
2023/10/28 10:11:07;;;;;;;3.62;1.75;;;;;;;16.98;55.16;98887.53;7659277;32;37958;-85
2023/10/28 10:15:23;;;;;;;2.85;1.45;;;;;;;16.58;56.25;98894.28;7659130;32;37824;-85
2023/10/28 10:19:40;;;;;;;1.58;1.37;;;;;;;16.81;57.30;98894.75;7659214;32;39411;-86
2023/10/28 10:24:02;;;;;;;5.65;2.60;;;;;;;16.74;56.37;98894.47;7659152;32;40813;-84
2023/10/28 10:28:20;;;;;;;6.37;3.10;;;;;;;16.63;56.99;98894.06;7657925;32;38648;-85
2023/10/28 10:32:47;;;;;;;5.62;2.37;;;;;;;16.73;58.83;98884.62;7659080;32;36146;-84
2023/10/28 10:37:04;;;;;;;3.28;2.08;;;;;;;17.27;58.26;98884.69;7658958;32;38805;-85
2023/10/28 10:41:28;;;;;;;4.37;2.12;;;;;;;17.44;57.92;98885.66;7659013;32;40666;-85
2023/10/28 10:45:45;;;;;;;3.72;2.60;;;;;;;17.65;58.96;98877.34;7658487;32;39090;-86
2023/10/28 10:50:02;;;;;;;2.83;1.95;;;;;;;17.87;58.72;98881.66;7657699;32;36979;-85
2023/10/28 10:54:19;;;;;;;5.00;2.50;;;;;;;18.12;57.49;98876.16;7657850;32;39537;-84
2023/10/28 10:58:35;;;;;;;5.85;2.00;;;;;;;18.36;57.47;98862.34;7658539;32;39905;-85
2023/10/28 11:02:56;;;;;;;4.53;2.03;;;;;;;19.05;56.08;98861.66;7658488;32;38077;-86
2023/10/28 11:07:13;;;;;;;4.03;1.37;;;;;;;19.37;54.13;98865.31;7658206;32;37380;-85
2023/10/28 11:11:30;;;;;;;1.85;1.25;;;;;;;19.42;51.55;98867.81;7663935;32;39350;-88
2023/10/28 11:15:49;;;;;;;2.22;1.17;;;;;;;19.42;51.73;98867.00;7676664;32;40563;-87
2023/10/28 11:20:06;;;;;;;4.35;1.40;;;;;;;19.24;52.14;98861.00;7685931;32;38034;-86
2023/10/28 11:24:23;;;;;;;2.05;1.42;;;;;;;19.13;50.78;98866.22;7684785;32;37951;-86
2023/10/28 11:28:39;;;;;;;3.00;1.40;;;;;;;19.62;50.87;98856.88;7684890;32;39480;-86
2023/10/28 11:32:56;;;;;;;4.00;1.35;;;;;;;19.06;50.15;98864.06;7684421;32;40695;-88
2023/10/28 11:37:12;;;;;;;3.72;1.23;;;;;;;19.71;50.65;98851.97;7670431;32;37598;-84
2023/10/28 11:41:30;;;;;;;3.33;1.27;;;;;;;19.77;48.99;98867.19;7670718;32;37808;-83
2023/10/28 11:45:47;;;;;;;3.20;1.30;;;;;;;18.73;50.76;98870.59;7663968;32;40063;-83
2023/10/28 11:50:05;;;;;;;3.53;1.70;;;;;;;18.75;51.41;98865.50;7670057;32;40862;-83
2023/10/28 11:54:24;;;;;;;4.53;2.30;;;;;;;18.48;51.10;98857.97;7671331;32;37963;-84
2023/10/28 11:58:43;;;;;;;5.37;1.50;;;;;;;18.74;50.55;98872.19;7669785;32;37138;-82
2023/10/28 12:02:59;;;;;;;4.60;2.03;;;;;;;19.14;49.14;98865.87;7670270;32;40077;-85
2023/10/28 12:07:15;;;;;;;5.75;1.67;;;;;;;18.89;48.45;98867.13;7662838;32;40335;-82
2023/10/28 12:11:32;;;;;;;13.68;3.85;;;;;;;19.02;47.95;98859.59;7670083;32;37831;-82
2023/10/28 12:15:49;;;;;;;4.32;1.95;;;;;;;18.50;49.09;98856.47;7670854;32;38143;-82
2023/10/28 12:20:07;;;;;;;11.38;2.83;;;;;;;18.28;49.36;98873.50;7670216;32;39984;-82
2023/10/28 12:24:24;;;;;;;2.58;1.40;;;;;;;18.18;50.08;98877.56;7679402;32;40517;-80
2023/10/28 12:28:40;;;;;;;2.87;1.40;;;;;;;18.14;50.33;98885.72;7683684;32;38468;-85
2023/10/28 12:32:57;;;;;;;2.22;1.20;;;;;;;18.34;49.27;98885.94;7683632;32;37421;-85
2023/10/28 12:37:13;;;;;;;2.28;1.40;;;;;;;17.56;49.23;98890.41;7683441;32;40154;-84
2023/10/28 12:41:30;;;;;;;3.50;1.40;;;;;;;17.76;49.67;98888.72;7683496;32;40047;-85
2023/10/28 12:45:47;;;;;;;2.55;0.95;;;;;;;17.75;47.33;98887.13;7683333;32;37622;-83
2023/10/28 12:50:04;;;;;;;1.12;1.02;;;;;;;17.73;46.72;98889.41;7683297;32;37818;-83
2023/10/28 12:54:21;;;;;;;2.15;1.20;;;;;;;16.88;46.05;98900.56;7683264;32;39444;-83
2023/10/28 12:58:38;;;;;;;2.12;1.10;;;;;;;17.14;45.60;98902.28;7682736;32;39994;-82
2023/10/28 13:02:54;;;;;;;1.85;0.90;;;;;;;17.10;47.24;98906.88;7682962;32;37637;-84
2023/10/28 13:07:11;;;;;;;2.28;0.98;;;;;;;16.89;45.88;98918.69;7683291;32;36982;-83
2023/10/28 13:11:28;;;;;;;2.25;1.37;;;;;;;17.02;43.85;98911.31;7686322;32;39377;-83
2023/10/28 13:15:44;;;;;;;2.60;1.10;;;;;;;17.12;43.47;98912.03;7686245;32;40629;-83
2023/10/28 13:20:01;;;;;;;1.30;1.10;;;;;;;16.94;42.23;98909.44;7686329;32;38679;-83
2023/10/28 13:24:19;;;;;;;2.08;1.17;;;;;;;17.31;41.91;98914.31;7672537;32;37963;-83
2023/10/28 13:28:35;;;;;;;1.87;1.00;;;;;;;17.53;41.51;98913.13;7672732;32;39377;-84
2023/10/28 13:32:52;;;;;;;4.35;1.15;;;;;;;17.37;41.85;98924.00;7685904;32;40813;-84
2023/10/28 13:37:12;;;;;;;3.00;0.90;;;;;;;17.73;40.71;98914.19;7685983;32;38660;-84
2023/10/28 13:41:28;;;;;;;3.22;0.90;;;;;;;17.51;41.83;98913.47;7686078;32;36736;-83
2023/10/28 13:45:44;;;;;;;1.83;1.10;;;;;;;17.08;41.61;98920.19;7686084;32;39791;-82
2023/10/28 13:50:04;;;;;;;3.67;1.80;;;;;;;17.55;41.32;98908.88;7686094;32;39909;-82
2023/10/28 13:54:21;;;;;;;3.05;1.60;;;;;;;17.52;40.84;98915.06;7672815;32;37933;-82
2023/10/28 13:58:38;;;;;;;2.80;1.30;;;;;;;17.44;40.82;98916.78;7686101;32;35589;-83
2023/10/28 14:02:56;;;;;;;1.95;1.08;;;;;;;17.81;40.71;98908.59;7685808;32;39482;-82
2023/10/28 14:07:12;;;;;;;3.08;1.30;;;;;;;17.55;41.20;98919.91;7672089;32;39681;-83
2023/10/28 14:11:28;;;;;;;3.37;1.05;;;;;;;17.44;40.59;98927.00;7685396;32;38084;-82
2023/10/28 14:15:45;;;;;;;5.30;2.83;;;;;;;17.56;41.33;98926.25;7685675;32;37011;-82
2023/10/28 14:20:02;;;;;;;2.75;1.70;;;;;;;17.55;41.03;98936.44;7685107;32;39488;-82
2023/10/28 14:24:21;;;;;;;3.95;1.80;;;;;;;17.18;41.40;98941.00;7684328;32;40684;-82
2023/10/28 14:28:37;;;;;;;4.00;1.45;;;;;;;17.38;41.65;98939.34;7685775;32;38924;-84
2023/10/28 14:32:56;;;;;;;3.03;1.20;;;;;;;17.62;41.57;98935.88;7685427;32;37043;-84
2023/10/28 14:37:12;;;;;;;4.70;2.17;;;;;;;17.63;42.14;98941.06;7685482;32;38638;-83
2023/10/28 14:41:33;;;;;;;4.43;1.95;;;;;;;17.45;42.20;98950.63;7685323;32;39737;-84
2023/10/28 14:45:50;;;;;;;8.48;2.83;;;;;;;17.59;42.38;98962.19;7685288;32;37918;-83
2023/10/28 14:50:07;;;;;;;3.85;2.03;;;;;;;17.50;42.68;98958.69;7685283;32;36965;-83
2023/10/28 14:54:26;;;;;;;6.80;2.50;;;;;;;17.68;42.53;98964.03;7684882;32;39055;-83
2023/10/28 14:58:43;;;;;;;8.10;4.35;;;;;;;17.60;42.70;98961.03;7683694;32;39382;-79
2023/10/28 15:03:00;;;;;;;10.95;4.40;;;;;;;17.56;44.79;98960.09;7683866;32;37959;-77
2023/10/28 15:07:20;;;;;;;9.98;4.43;;;;;;;17.64;44.94;98959.22;7683802;32;36638;-78
2023/10/28 15:11:36;;;;;;;7.57;3.58;;;;;;;18.88;43.73;98951.09;7684961;32;39380;-78
2023/10/28 15:15:53;;;;;;;7.43;3.25;;;;;;;19.65;40.96;98952.94;7681219;32;39918;-84
2023/10/28 15:20:12;;;;;;;10.10;4.20;;;;;;;20.67;40.88;98937.78;7694019;32;38675;-81
2023/10/28 15:24:29;;;;;;;15.00;5.60;;;;;;;20.97;38.94;98940.81;7669881;32;37292;-83
2023/10/28 15:28:47;;;;;;;13.27;5.70;;;;;;;20.29;39.65;98937.25;7684135;32;39367;-74
2023/10/28 15:33:03;;;;;;;14.65;6.20;;;;;;;19.65;42.07;98933.59;7683266;32;39330;-84
2023/10/28 15:37:26;;;;;;;15.52;6.93;;;;;;;18.94;43.39;98935.91;7691010;32;37748;-82
2023/10/28 15:41:43;;;;;;;14.50;5.03;;;;;;;18.44;45.38;98934.31;7684603;32;37068;-81
2023/10/28 15:46:04;;;;;;;9.55;3.80;;;;;;;18.07;45.23;98937.84;7683452;32;40161;-79
2023/10/28 15:50:20;;;;;;;5.37;2.40;;;;;;;17.59;46.17;98950.34;7671250;32;39984;-81
2023/10/28 15:54:37;;;;;;;3.62;1.77;;;;;;;17.49;46.63;98946.06;7681386;32;37901;-81
2023/10/28 15:58:53;;;;;;;3.22;1.73;;;;;;;17.08;47.06;98954.00;7690939;32;37795;-81
2023/10/28 16:03:13;;;;;;;9.02;3.55;;;;;;;16.50;46.30;98963.91;7691195;32;38755;-82
2023/10/28 16:07:29;;;;;;;7.03;2.90;;;;;;;16.45;49.28;98970.41;7689285;32;40906;-82
2023/10/28 16:11:46;;;;;;;14.02;4.53;;;;;;;16.15;50.33;98975.06;7696587;32;37895;-80
2023/10/28 16:16:03;;;;;;;12.27;5.72;;;;;;;16.02;51.39;98982.34;7664115;32;37860;-80
2023/10/28 16:20:21;;;;;;;14.18;6.28;;;;;;;15.86;52.25;98984.81;7678560;32;39319;-80
2023/10/28 16:24:37;;;;;;;14.80;7.37;;;;;;;15.80;52.43;98983.41;7683782;32;40848;-79
2023/10/28 16:28:54;;;;;;;9.43;4.07;;;;;;;15.27;53.63;98981.78;7683776;32;38660;-77
2023/10/28 16:33:10;;;;;;;10.23;4.43;;;;;;;15.09;53.33;98983.72;7682875;32;37690;-78
2023/10/28 16:37:30;;;;;;;6.45;3.17;;;;;;;15.16;53.24;98986.78;7683230;32;39845;-79
2023/10/28 16:41:46;;;;;;;4.57;2.70;;;;;;;15.15;53.38;99004.41;7683741;32;39774;-78
2023/10/28 16:46:04;;;;;;;6.97;3.25;;;;;;;14.85;53.53;99020.66;7685316;32;37838;-78
2023/10/28 16:50:21;;;;;;;6.32;3.22;;;;;;;14.67;53.98;99038.19;7686284;32;37697;-79
2023/10/28 16:54:38;;;;;;;7.75;3.60;;;;;;;14.67;54.24;99046.41;7681809;32;39463;-79
2023/10/28 16:58:54;;;;;;;10.63;4.18;;;;;;;14.40;55.02;99039.97;7672047;32;39843;-79
2023/10/28 17:03:11;;;;;;;8.77;3.60;;;;;;;14.30;55.23;99042.97;7672399;32;38056;-80
2023/10/28 17:07:27;;;;;;;6.43;2.60;;;;;;;14.07;56.15;99040.28;7670917;32;37116;-79
2023/10/28 17:11:44;;;;;;;8.25;2.55;;;;;;;14.19;55.86;99032.28;7678804;32;40598;-79
2023/10/28 17:16:00;;;;;;;4.20;2.20;;;;;;;14.01;56.37;99028.62;7676147;32;39652;-79
2023/10/28 17:20:19;;;;;;;4.30;1.90;;;;;;;13.67;57.38;99034.69;7672760;32;37967;-80
2023/10/28 17:24:38;;;;;;;2.92;1.77;;;;;;;13.51;57.95;99026.84;7671603;32;37161;-79
2023/10/28 17:28:54;;;;;;;5.82;2.35;;;;;;;13.27;58.78;99029.00;7672357;32;40011;-79
2023/10/28 17:33:11;;;;;;;4.05;2.17;;;;;;;13.03;59.42;99038.28;7673952;32;40644;-80
2023/10/28 17:37:29;;;;;;;8.95;3.67;;;;;;;12.78;59.47;99037.69;7673069;32;38758;-79
2023/10/28 17:41:49;;;;;;;7.37;3.03;;;;;;;12.49;60.16;99045.41;7672621;32;37005;-80
2023/10/28 17:46:10;;;;;;;5.95;2.85;;;;;;;12.36;60.53;99039.59;7671399;32;39301;-80
2023/10/28 17:50:27;;;;;;;6.55;2.62;;;;;;;12.65;59.56;99046.72;7673191;32;40909;-80
2023/10/28 17:54:43;;;;;;;3.87;2.33;;;;;;;12.64;59.22;99058.78;7672646;32;38827;-79
2023/10/28 17:59:00;;;;;;;9.13;2.72;;;;;;;12.79;58.55;99079.53;7661702;32;37958;-80
2023/10/28 18:03:20;;;;;;;5.78;2.50;;;;;;;12.58;59.04;99095.53;7672239;32;39249;-79
2023/10/28 18:07:41;;;;;;;7.62;2.03;;;;;;;12.74;58.26;99102.31;7663884;32;39057;-80
2023/10/28 18:12:04;;;;;;;6.57;2.55;;;;;;;12.58;58.47;99099.06;7672702;32;37897;-80
2023/10/28 18:16:34;;;;;;;4.25;1.92;;;;;;;12.34;59.56;99101.97;7665566;32;38020;-80
2023/10/28 18:20:53;;;;;;;3.40;2.20;;;;;;;12.25;59.91;99109.22;7672224;32;38378;-81
2023/10/28 18:25:18;;;;;;;6.87;2.70;;;;;;;12.27;59.70;99107.00;7685405;32;39993;-80
2023/10/28 18:29:44;;;;;;;6.55;2.40;;;;;;;12.00;60.57;99141.34;7685455;32;38811;-80
2023/10/28 18:34:08;;;;;;;3.92;2.70;;;;;;;11.91;60.26;99156.75;7684774;32;37620;-79
2023/10/28 18:38:27;;;;;;;4.75;2.12;;;;;;;12.15;59.23;99153.13;7685115;32;38258;-79
2023/10/28 18:42:51;;;;;;;8.52;2.53;;;;;;;11.95;59.60;99176.09;7685192;32;39901;-80
2023/10/28 18:47:08;;;;;;;4.55;2.33;;;;;;;12.11;59.18;99173.97;7685076;32;37684;-81
2023/10/28 18:51:27;;;;;;;7.60;2.90;;;;;;;11.99;59.57;99180.69;7684821;32;37135;-81
2023/10/28 18:55:46;;;;;;;3.33;1.80;;;;;;;11.92;59.55;99180.25;7684859;32;39406;-81
2023/10/28 19:00:10;;;;;;;6.97;2.25;;;;;;;11.97;59.48;99177.44;7685057;32;38967;-81
2023/10/28 19:04:34;;;;;;;3.87;2.17;;;;;;;11.69;60.21;99172.88;7685014;32;37632;-80
2023/10/28 19:08:56;;;;;;;4.20;2.10;;;;;;;11.86;59.78;99183.31;7684353;32;37147;-80
2023/10/28 19:13:16;;;;;;;5.25;2.50;;;;;;;11.72;60.65;99194.16;7685129;32;39358;-81
2023/10/28 19:17:37;;;;;;;3.80;2.30;;;;;;;11.85;60.09;99185.22;7684927;32;40226;-81
2023/10/28 19:22:00;;;;;;;5.00;2.45;;;;;;;11.91;59.46;99191.47;7684948;32;36833;-81
2023/10/28 19:26:27;;;;;;;4.47;2.60;;;;;;;11.50;60.55;99191.97;7672089;32;36830;-81
2023/10/28 19:30:49;;;;;;;6.60;2.42;;;;;;;11.51;60.18;99202.59;7684905;32;39429;-80
2023/10/28 19:35:12;;;;;;;5.05;2.30;;;;;;;11.53;59.86;99203.13;7684188;32;39894;-81
2023/10/28 19:39:50;;;;;;;1.92;1.73;;;;;;;11.56;59.64;99199.81;7684235;32;38399;-81
2023/10/28 19:44:12;;;;;;;4.43;2.62;;;;;;;11.36;60.19;99191.88;7684503;32;37822;-81
2023/10/28 19:48:33;;;;;;;;;;;;;;;10.62;62.28;99208.44;7684789;32;40098;-82
2023/10/28 19:52:53;;;;;;;4.87;2.50;;;;;;;11.08;61.03;99208.00;7684217;32;40062;-82
2023/10/28 19:57:13;;;;;;;4.37;2.50;;;;;;;11.18;60.51;99191.53;7683874;32;37960;-79
2023/10/28 20:01:30;;;;;;;4.20;1.98;;;;;;;11.23;60.07;99196.13;7684149;32;37802;-81
2023/10/28 20:05:47;;;;;;;5.87;2.25;;;;;;;11.17;60.33;99209.00;7683391;32;40245;-81
2023/10/28 20:10:05;;;;;;;8.40;2.25;;;;;;;11.26;59.75;99215.47;7684197;32;40744;-82
2023/10/28 20:14:25;;;;;;;7.00;2.60;;;;;;;11.21;59.87;99226.44;7683514;32;37912;-81